David Mcnemar — WDF4192 — position and weather

sailwx.info

Track history (hours):
 
Tides and Currents Weather Stations Pressure Air Temp Water Temp Dewpoint Dewpoint Depression Visibility Wind Speed Wind Dir Waves Ship Positions

David Mcnemar

Owner: Florida Marine Transporters, Inc., Mandeville, LA. More information available from US FCC via Universal Licensing System and Coast Guard Vessel Documentation Center.

Last reported at 2017-Dec-11 14:23 UTC. Time now 2017-Dec-13 12:43 UTC.
Position N 29°56' W 093°04'.

Length 27 m; draft 2.8 m.

Type: Towing. MMSI: 367449040.

Date/timePositionNaut miles runAvg speedWind from/ knotsBaromVisibWave heightAir tempDewpointWater temp
2017-Dec-11 14:23N 29°56' W 093°04'1 3.2
2017-Dec-11 14:01N 29°56' W 093°05'2 3.0
2017-Dec-11 13:30N 29°56' W 093°07'2 3.8
2017-Dec-11 13:01N 29°56' W 093°09'2 4.3
2017-Dec-11 12:31N 29°58' W 093°11'2 4.4
2017-Dec-11 12:01N 29°59' W 093°13'2 3.9
2017-Dec-11 11:31N 30°01' W 093°14'2 3.8
2017-Dec-11 11:00N 30°02' W 093°15'2 3.2
2017-Dec-11 10:30N 30°04' W 093°16'2 3.6
2017-Dec-11 10:01N 30°05' W 093°17'1 1.6
2017-Dec-11 09:30N 30°06' W 093°18'0 0.8
2017-Dec-11 09:01N 30°06' W 093°18'0 0.0
2017-Dec-11 08:30N 30°06' W 093°18'0 0.0
2017-Dec-11 08:01N 30°06' W 093°18'0 0.0
2017-Dec-11 07:30N 30°06' W 093°18'0 0.0
2017-Dec-11 07:00N 30°06' W 093°18'1 1.6
2017-Dec-11 06:30N 30°06' W 093°19'2 3.9
2017-Dec-11 06:00N 30°04' W 093°21'2 3.5
2017-Dec-11 05:31N 30°04' W 093°22'2 3.6
2017-Dec-11 05:00N 30°04' W 093°24'2 4.6
2017-Dec-11 04:31N 30°04' W 093°27'2 4.6
2017-Dec-11 04:00N 30°04' W 093°30'2 4.6
2017-Dec-11 03:31N 30°04' W 093°32'2 4.6
2017-Dec-11 03:01N 30°04' W 093°35'2 4.7
2017-Dec-11 02:30N 30°04' W 093°38'2 4.8
2017-Dec-11 02:00N 30°04' W 093°41'2 4.7
2017-Dec-11 01:30N 30°03' W 093°43'2 4.9
2017-Dec-11 01:00N 30°01' W 093°45'5 0.2
2017-Dec-10 01:16N 30°04' W 093°39'2 6.0
2017-Dec-10 00:57N 30°04' W 093°37'3 5.8
2017-Dec-10 00:29N 30°04' W 093°34'3 5.6
2017-Dec-10 00:01N 30°04' W 093°31'3 5.6
2017-Dec-09 23:31N 30°04' W 093°28'3 5.4
2017-Dec-09 23:01N 30°04' W 093°25'3 5.1
2017-Dec-09 22:31N 30°04' W 093°22'2 4.6
2017-Dec-09 22:01N 30°05' W 093°20'2 4.0
2017-Dec-09 21:30N 30°05' W 093°17'1 2.2
2017-Dec-09 21:01N 30°04' W 093°16'0 0.0
2017-Dec-09 20:30N 30°04' W 093°16'0 0.6
2017-Dec-09 20:00N 30°04' W 093°16'3 5.9
2017-Dec-09 19:30N 30°02' W 093°14'2 3.4
2017-Dec-09 19:01N 30°00' W 093°14'2 4.9
2017-Dec-09 18:31N 29°58' W 093°12'3 5.8
2017-Dec-09 18:01N 29°56' W 093°10'3 5.0
2017-Dec-09 17:29N 29°56' W 093°07'3 6.3
2017-Dec-09 17:00N 29°56' W 093°03'13 5.9
2017-Dec-09 14:43N 29°58' W 092°48'24 5.2
2017-Dec-09 10:07N 29°51' W 092°22'1 5.3
2017-Dec-09 09:59N 29°51' W 092°21'3 5.5
2017-Dec-09 09:30N 29°50' W 092°18'2 4.6
2017-Dec-09 09:00N 29°49' W 092°16'2 4.9
2017-Dec-09 08:31N 29°48' W 092°13'3 5.1
2017-Dec-09 08:00N 29°47' W 092°11'3 5.9
2017-Dec-09 07:31N 29°47' W 092°07'3 6.1
2017-Dec-09 07:01N 29°48' W 092°04'3 6.2
2017-Dec-09 06:31N 29°50' W 092°01'2 4.2
2017-Dec-09 06:00N 29°50' W 091°58'  
2017-Dec-04 10:03N 30°04' W 093°32'0 6.9
2017-Dec-04 10:00N 30°04' W 093°32'3 7.1
2017-Dec-04 09:31N 30°04' W 093°28'3 6.2
2017-Dec-04 09:00N 30°04' W 093°24'3 5.3
2017-Dec-04 08:31N 30°04' W 093°21'2 4.5
2017-Dec-04 08:01N 30°05' W 093°20'2 3.4
2017-Dec-04 07:31N 30°05' W 093°18'1 2.2
2017-Dec-04 07:01N 30°05' W 093°17'1 1.4
2017-Dec-04 06:31N 30°04' W 093°16'0 0.7
2017-Dec-04 06:00N 30°04' W 093°16'1 2.7
2017-Dec-04 05:30N 30°02' W 093°16'0 0.8
2017-Dec-04 05:00N 30°02' W 093°15'2 4.4
2017-Dec-04 04:31N 30°00' W 093°14'3 5.5
2017-Dec-04 04:00N 29°58' W 093°12'3 5.7
2017-Dec-04 03:30N 29°56' W 093°09'4 5.8
2017-Dec-04 02:48N 29°56' W 093°05'2 5.6
2017-Dec-04 02:25N 29°56' W 093°02'2 4.8
2017-Dec-04 01:57N 29°56' W 092°60'14 5.2
2017-Dec-03 23:17N 29°58' W 092°44'21 5.4
2017-Dec-03 19:27N 29°51' W 092°22'3 5.6
2017-Dec-03 19:00N 29°50' W 092°19'3 5.2
2017-Dec-03 18:31N 29°49' W 092°17'3 5.5
2017-Dec-03 18:00N 29°48' W 092°14'2 4.7
2017-Dec-03 17:30N 29°47' W 092°11'0 0.8
2017-Dec-03 17:01N 29°47' W 092°11'2 3.9
2017-Dec-03 16:31N 29°47' W 092°08'0 0.8
2017-Dec-03 16:01N 29°47' W 092°08'0 0.0
2017-Dec-03 15:31N 29°47' W 092°08'0 0.0
2017-Dec-03 15:00N 29°47' W 092°08'0 0.0
2017-Dec-03 14:30N 29°47' W 092°08'0 0.1
2017-Dec-03 13:58N 29°47' W 092°08'1 1.7
2017-Dec-03 13:16N 29°48' W 092°07'0 0.2
2017-Dec-03 12:58N 29°48' W 092°07'0 0.0
2017-Dec-03 12:30N 29°48' W 092°07'0 0.0
2017-Dec-03 12:00N 29°48' W 092°07'0 0.0
2017-Dec-03 11:30N 29°48' W 092°07'0 0.0
2017-Dec-03 10:58N 29°48' W 092°07'0 0.0
2017-Dec-03 10:31N 29°48' W 092°07'0 0.0
2017-Dec-03 10:01N 29°48' W 092°07'0 0.0
2017-Dec-03 09:30N 29°48' W 092°07'0 0.0
2017-Dec-03 08:57N 29°48' W 092°07'0 0.1
2017-Dec-03 08:31N 29°48' W 092°07'0 0.0
2017-Dec-03 08:00N 29°48' W 092°07'0 0.0
2017-Dec-03 07:31N 29°48' W 092°07'0 0.0
2017-Dec-03 06:52N 29°48' W 092°07'0 0.0
2017-Dec-03 06:30N 29°48' W 092°07'0 0.0
2017-Dec-03 05:56N 29°48' W 092°07'0 0.0
2017-Dec-03 05:30N 29°48' W 092°07'0 0.0
2017-Dec-03 04:55N 29°48' W 092°07'0 0.0
2017-Dec-03 04:31N 29°48' W 092°07'0 0.0
2017-Dec-03 03:55N 29°48' W 092°07'0 0.1
2017-Dec-03 03:31N 29°48' W 092°07'0 0.1
2017-Dec-03 03:00N 29°48' W 092°07'0 0.0
2017-Dec-03 02:30N 29°48' W 092°07'0 0.0
2017-Dec-03 02:01N 29°48' W 092°07'0 0.1
2017-Dec-03 01:30N 29°48' W 092°07'2 3.4
2017-Dec-03 01:00N 29°48' W 092°05'3 6.3
2017-Dec-03 00:31N 29°49' W 092°02'3 6.9
2017-Dec-03 00:01N 29°50' W 091°58'3 5.1
2017-Dec-02 23:30N 29°51' W 091°55'  
Track history (hours):
 
Tides and Currents Weather Stations Pressure Air Temp Water Temp Dewpoint Dewpoint Depression Visibility Wind Speed Wind Dir Waves Ship Positions

David Mcnemar

Owner: Florida Marine Transporters, Inc., Mandeville, LA. More information available from US FCC via Universal Licensing System and Coast Guard Vessel Documentation Center.

Last reported at 2017-Dec-11 14:23 UTC. Time now 2017-Dec-13 12:43 UTC.
Position N 29°56' W 093°04'.

Length 27 m; draft 2.8 m.

Type: Towing. MMSI: 367449040.

Date/timePositionNaut miles runAvg speedWind from/ knotsBaromVisibWave heightAir tempDewpointWater temp
2017-Dec-11 14:23N 29°56' W 093°04'1 3.2
2017-Dec-11 14:01N 29°56' W 093°05'2 3.0
2017-Dec-11 13:30N 29°56' W 093°07'2 3.8
2017-Dec-11 13:01N 29°56' W 093°09'2 4.3
2017-Dec-11 12:31N 29°58' W 093°11'2 4.4
2017-Dec-11 12:01N 29°59' W 093°13'2 3.9
2017-Dec-11 11:31N 30°01' W 093°14'2 3.8
2017-Dec-11 11:00N 30°02' W 093°15'2 3.2
2017-Dec-11 10:30N 30°04' W 093°16'2 3.6
2017-Dec-11 10:01N 30°05' W 093°17'1 1.6
2017-Dec-11 09:30N 30°06' W 093°18'0 0.8
2017-Dec-11 09:01N 30°06' W 093°18'0 0.0
2017-Dec-11 08:30N 30°06' W 093°18'0 0.0
2017-Dec-11 08:01N 30°06' W 093°18'0 0.0
2017-Dec-11 07:30N 30°06' W 093°18'0 0.0
2017-Dec-11 07:00N 30°06' W 093°18'1 1.6
2017-Dec-11 06:30N 30°06' W 093°19'2 3.9
2017-Dec-11 06:00N 30°04' W 093°21'2 3.5
2017-Dec-11 05:31N 30°04' W 093°22'2 3.6
2017-Dec-11 05:00N 30°04' W 093°24'2 4.6
2017-Dec-11 04:31N 30°04' W 093°27'2 4.6
2017-Dec-11 04:00N 30°04' W 093°30'2 4.6
2017-Dec-11 03:31N 30°04' W 093°32'2 4.6
2017-Dec-11 03:01N 30°04' W 093°35'2 4.7
2017-Dec-11 02:30N 30°04' W 093°38'2 4.8
2017-Dec-11 02:00N 30°04' W 093°41'2 4.7
2017-Dec-11 01:30N 30°03' W 093°43'2 4.9
2017-Dec-11 01:00N 30°01' W 093°45'5 0.2
2017-Dec-10 01:16N 30°04' W 093°39'2 6.0
2017-Dec-10 00:57N 30°04' W 093°37'3 5.8
2017-Dec-10 00:29N 30°04' W 093°34'3 5.6
2017-Dec-10 00:01N 30°04' W 093°31'3 5.6
2017-Dec-09 23:31N 30°04' W 093°28'3 5.4
2017-Dec-09 23:01N 30°04' W 093°25'3 5.1
2017-Dec-09 22:31N 30°04' W 093°22'2 4.6
2017-Dec-09 22:01N 30°05' W 093°20'2 4.0
2017-Dec-09 21:30N 30°05' W 093°17'1 2.2
2017-Dec-09 21:01N 30°04' W 093°16'0 0.0
2017-Dec-09 20:30N 30°04' W 093°16'0 0.6
2017-Dec-09 20:00N 30°04' W 093°16'3 5.9
2017-Dec-09 19:30N 30°02' W 093°14'2 3.4
2017-Dec-09 19:01N 30°00' W 093°14'2 4.9
2017-Dec-09 18:31N 29°58' W 093°12'3 5.8
2017-Dec-09 18:01N 29°56' W 093°10'3 5.0
2017-Dec-09 17:29N 29°56' W 093°07'3 6.3
2017-Dec-09 17:00N 29°56' W 093°03'13 5.9
2017-Dec-09 14:43N 29°58' W 092°48'24 5.2
2017-Dec-09 10:07N 29°51' W 092°22'1 5.3
2017-Dec-09 09:59N 29°51' W 092°21'3 5.5
2017-Dec-09 09:30N 29°50' W 092°18'2 4.6
2017-Dec-09 09:00N 29°49' W 092°16'2 4.9
2017-Dec-09 08:31N 29°48' W 092°13'3 5.1
2017-Dec-09 08:00N 29°47' W 092°11'3 5.9
2017-Dec-09 07:31N 29°47' W 092°07'3 6.1
2017-Dec-09 07:01N 29°48' W 092°04'3 6.2
2017-Dec-09 06:31N 29°50' W 092°01'2 4.2
2017-Dec-09 06:00N 29°50' W 091°58'  
2017-Dec-04 10:03N 30°04' W 093°32'0 6.9
2017-Dec-04 10:00N 30°04' W 093°32'3 7.1
2017-Dec-04 09:31N 30°04' W 093°28'3 6.2
2017-Dec-04 09:00N 30°04' W 093°24'3 5.3
2017-Dec-04 08:31N 30°04' W 093°21'2 4.5
2017-Dec-04 08:01N 30°05' W 093°20'2 3.4
2017-Dec-04 07:31N 30°05' W 093°18'1 2.2
2017-Dec-04 07:01N 30°05' W 093°17'1 1.4
2017-Dec-04 06:31N 30°04' W 093°16'0 0.7
2017-Dec-04 06:00N 30°04' W 093°16'1 2.7
2017-Dec-04 05:30N 30°02' W 093°16'0 0.8
2017-Dec-04 05:00N 30°02' W 093°15'2 4.4
2017-Dec-04 04:31N 30°00' W 093°14'3 5.5
2017-Dec-04 04:00N 29°58' W 093°12'3 5.7
2017-Dec-04 03:30N 29°56' W 093°09'4 5.8
2017-Dec-04 02:48N 29°56' W 093°05'2 5.6
2017-Dec-04 02:25N 29°56' W 093°02'2 4.8
2017-Dec-04 01:57N 29°56' W 092°60'14 5.2
2017-Dec-03 23:17N 29°58' W 092°44'21 5.4
2017-Dec-03 19:27N 29°51' W 092°22'3 5.6
2017-Dec-03 19:00N 29°50' W 092°19'3 5.2
2017-Dec-03 18:31N 29°49' W 092°17'3 5.5
2017-Dec-03 18:00N 29°48' W 092°14'2 4.7
2017-Dec-03 17:30N 29°47' W 092°11'0 0.8
2017-Dec-03 17:01N 29°47' W 092°11'2 3.9
2017-Dec-03 16:31N 29°47' W 092°08'0 0.8
2017-Dec-03 16:01N 29°47' W 092°08'0 0.0
2017-Dec-03 15:31N 29°47' W 092°08'0 0.0
2017-Dec-03 15:00N 29°47' W 092°08'0 0.0
2017-Dec-03 14:30N 29°47' W 092°08'0 0.1
2017-Dec-03 13:58N 29°47' W 092°08'1 1.7
2017-Dec-03 13:16N 29°48' W 092°07'0 0.2
2017-Dec-03 12:58N 29°48' W 092°07'0 0.0
2017-Dec-03 12:30N 29°48' W 092°07'0 0.0
2017-Dec-03 12:00N 29°48' W 092°07'0 0.0
2017-Dec-03 11:30N 29°48' W 092°07'0 0.0
2017-Dec-03 10:58N 29°48' W 092°07'0 0.0
2017-Dec-03 10:31N 29°48' W 092°07'0 0.0
2017-Dec-03 10:01N 29°48' W 092°07'0 0.0
2017-Dec-03 09:30N 29°48' W 092°07'0 0.0
2017-Dec-03 08:57N 29°48' W 092°07'0 0.1
2017-Dec-03 08:31N 29°48' W 092°07'0 0.0
2017-Dec-03 08:00N 29°48' W 092°07'0 0.0
2017-Dec-03 07:31N 29°48' W 092°07'0 0.0
2017-Dec-03 06:52N 29°48' W 092°07'0 0.0
2017-Dec-03 06:30N 29°48' W 092°07'0 0.0
2017-Dec-03 05:56N 29°48' W 092°07'0 0.0
2017-Dec-03 05:30N 29°48' W 092°07'0 0.0
2017-Dec-03 04:55N 29°48' W 092°07'0 0.0
2017-Dec-03 04:31N 29°48' W 092°07'0 0.0
2017-Dec-03 03:55N 29°48' W 092°07'0 0.1
2017-Dec-03 03:31N 29°48' W 092°07'0 0.1
2017-Dec-03 03:00N 29°48' W 092°07'0 0.0
2017-Dec-03 02:30N 29°48' W 092°07'0 0.0
2017-Dec-03 02:01N 29°48' W 092°07'0 0.1
2017-Dec-03 01:30N 29°48' W 092°07'2 3.4
2017-Dec-03 01:00N 29°48' W 092°05'3 6.3
2017-Dec-03 00:31N 29°49' W 092°02'3 6.9
2017-Dec-03 00:01N 29°50' W 091°58'3 5.1
2017-Dec-02 23:30N 29°51' W 091°55'  

Dump ship's entire track history